Terminal Aerodrome Forecast
Issued by NWS

Home | Current Version | Previous Version | Text Only | Print | Product List | Glossary On
Versions: 1 2 3 4 5 6 7 8 9 10 11 12 13 14 15 16
014
FTUS46 KSEW 301736
TAFPAE
TAF
KPAE 301736Z 3018/0118 32008KT P6SM VCSH SCT030 BKN060
     FM010000 33007KT P6SM SCT035
     FM010900 09003KT P6SM VCSH SCT020 OVC035
     FM011500 17007KT P6SM -RA SCT012 BKN020 OVC035=

USA.gov is the U.S. government's official web portal to all federal, state and local government web resources and services.